Time;durP1;ratioP1;P1;durP2;ratioP2;P2;SDS_P1;SDS_P2;PMS_P1;PMS_P2;Temp;Humidity;BMP_temperature;BMP_pressure;BME280_temperature;BME280_humidity;BME280_pressure;Samples;Min_cycle;Max_cycle;Signal;HPM_P1;HPM_P2
2023/04/18 00:01:51;;;;;;;;;10.75;8.00;21.20;41.40;;;;;;111169;1244;49906;-61
2023/04/18 00:04:18;;;;;;;;;9.25;7.75;21.20;41.40;;;;;;111245;1241;48844;-61
2023/04/18 00:06:46;;;;;;;;;10.00;8.25;21.20;41.40;;;;;;111269;1241;46335;-60
2023/04/18 00:09:13;;;;;;;;;9.50;9.00;21.20;41.40;;;;;;111203;1241;56269;-60
2023/04/18 00:11:40;;;;;;;;;10.00;9.00;21.20;41.40;;;;;;111271;1241;54916;-62
2023/04/18 00:14:07;;;;;;;;;10.00;8.67;21.20;41.40;;;;;;111304;1244;48742;-60
2023/04/18 00:16:35;;;;;;;;;10.00;8.00;21.20;41.40;;;;;;111250;1241;50280;-60
2023/04/18 00:19:03;;;;;;;;;10.00;9.00;21.20;41.40;;;;;;111262;1241;45260;-61
2023/04/18 00:21:30;;;;;;;;;9.00;8.00;21.20;41.40;;;;;;110949;1241;55849;-61
2023/04/18 00:23:57;;;;;;;;;10.00;9.00;21.10;41.30;;;;;;111157;1241;54072;-61
2023/04/18 00:26:26;;;;;;;;;9.00;7.67;21.20;41.40;;;;;;111342;1244;49120;-61
2023/04/18 00:28:53;;;;;;;;;11.00;10.00;21.10;41.30;;;;;;111299;1241;48707;-61
2023/04/18 00:31:20;;;;;;;;;11.00;9.00;21.10;40.90;;;;;;111176;1244;46618;-59
2023/04/18 00:33:46;;;;;;;;;11.00;9.00;21.10;41.30;;;;;;111161;1243;56035;-60
2023/04/18 00:36:13;;;;;;;;;10.00;9.00;21.10;41.30;;;;;;111317;1239;54419;-61
2023/04/18 00:38:40;;;;;;;;;8.00;7.00;21.10;41.30;;;;;;111217;1244;49307;-61
2023/04/18 00:41:07;;;;;;;;;8.75;6.75;21.10;41.30;;;;;;111175;1241;49210;-61
2023/04/18 00:43:35;;;;;;;;;9.50;8.25;21.10;41.30;;;;;;111159;1241;45389;-60
2023/04/18 00:46:03;;;;;;;;;8.00;7.00;21.10;41.50;;;;;;111277;1240;56765;-60
2023/04/18 00:48:30;;;;;;;;;9.75;7.00;21.10;41.40;;;;;;111279;1241;54281;-62
2023/04/18 00:50:59;;;;;;;;;11.75;9.00;21.10;41.30;;;;;;111099;1242;48570;-61
2023/04/18 00:53:26;;;;;;;;;10.75;8.75;21.10;41.40;;;;;;111114;1245;49630;-60
2023/04/18 00:55:54;;;;;;;;;10.00;8.00;21.10;41.30;;;;;;111332;1240;46108;-60
2023/04/18 00:58:21;;;;;;;;;10.00;8.75;21.00;41.30;;;;;;110970;1244;56238;-61
2023/04/18 01:00:48;;;;;;;;;11.00;9.25;21.00;41.20;;;;;;111206;1244;53892;-60
2023/04/18 01:03:16;;;;;;;;;9.00;7.33;21.00;41.30;;;;;;111140;1241;49453;-60
2023/04/18 01:05:44;;;;;;;;;8.75;7.75;21.00;41.30;;;;;;111180;1241;49552;-61
2023/04/18 01:08:11;;;;;;;;;10.00;9.00;21.00;41.30;;;;;;111257;1240;45763;-61
2023/04/18 01:10:38;;;;;;;;;9.75;8.75;21.00;41.30;;;;;;111001;1241;56320;-60
2023/04/18 01:13:16;;;;;;;;;10.00;8.00;21.00;41.30;;;;;;111039;1241;53886;-61
2023/04/18 01:15:45;;;;;;;;;11.00;9.33;21.00;41.50;;;;;;111325;1240;48964;-61
2023/04/18 01:18:15;;;;;;;;;10.33;9.00;21.00;41.50;;;;;;111216;1241;50304;-60
2023/04/18 01:20:46;;;;;;;;;9.00;8.00;21.00;41.20;;;;;;111193;1240;45503;-62
2023/04/18 01:23:14;;;;;;;;;9.00;8.00;21.00;41.20;;;;;;111217;1241;56548;-61
2023/04/18 01:25:41;;;;;;;;;11.00;10.00;21.00;41.30;;;;;;111186;1241;54296;-60
2023/04/18 01:28:09;;;;;;;;;8.75;7.75;21.00;41.20;;;;;;111246;1243;48894;-61
2023/04/18 01:30:36;;;;;;;;;8.00;7.00;21.00;41.20;;;;;;111257;1244;48406;-60
2023/04/18 01:33:04;;;;;;;;;9.00;8.00;21.00;41.40;;;;;;111374;1240;45947;-60
2023/04/18 01:35:31;;;;;;;;;10.00;8.00;21.00;41.80;;;;;;111250;1239;55372;-60
2023/04/18 01:37:59;;;;;;;;;8.00;7.00;20.90;41.20;;;;;;111306;1244;53047;-61
2023/04/18 01:40:29;;;;;;;;;9.00;8.00;21.00;41.40;;;;;;111296;1239;49110;-61
2023/04/18 01:42:59;;;;;;;;;8.75;7.75;21.00;41.40;;;;;;111021;1240;48837;-61
2023/04/18 01:45:26;;;;;;;;;9.00;8.00;21.00;41.80;;;;;;111261;1244;45832;-61
2023/04/18 01:47:53;;;;;;;;;10.00;9.00;21.00;41.40;;;;;;111034;1245;55908;-60
2023/04/18 01:50:20;;;;;;;;;8.75;7.75;21.00;41.40;;;;;;111276;1244;53958;-61
2023/04/18 01:52:47;;;;;;;;;8.75;7.75;20.90;41.10;;;;;;111166;1244;49675;-61
2023/04/18 01:55:14;;;;;;;;;9.00;8.00;20.90;41.20;;;;;;111182;1244;50103;-59
2023/04/18 01:57:40;;;;;;;;;9.50;7.75;20.90;41.20;;;;;;111270;1244;46519;-60
2023/04/18 02:00:08;;;;;;;;;10.00;8.00;20.90;41.20;;;;;;111172;1241;56088;-61
2023/04/18 02:02:35;;;;;;;;;9.33;8.00;20.90;41.20;;;;;;111178;1244;54071;-60
2023/04/18 02:05:02;;;;;;;;;10.75;8.75;20.90;41.20;;;;;;111167;1240;49460;-59
2023/04/18 02:07:29;;;;;;;;;9.00;8.00;20.90;41.20;;;;;;111178;1241;49617;-60
2023/04/18 02:09:56;;;;;;;;;9.50;8.00;20.90;41.20;;;;;;111318;1242;45514;-60
2023/04/18 02:12:23;;;;;;;;;10.00;8.67;20.90;41.20;;;;;;111458;1244;55081;-62
2023/04/18 02:14:52;;;;;;;;;9.00;7.75;20.80;41.20;;;;;;111262;1242;53464;-62
2023/04/18 02:17:20;;;;;;;;;8.50;7.00;20.80;41.20;;;;;;111542;1243;49134;-61
2023/04/18 02:19:47;;;;;;;;;11.00;10.00;20.80;41.20;;;;;;111488;1243;49163;-63
2023/04/18 02:22:14;;;;;;;;;10.33;8.67;20.80;40.70;;;;;;111479;1244;45617;-62
2023/04/18 02:24:40;;;;;;;;;9.25;7.75;20.80;41.40;;;;;;111434;1244;55995;-60
2023/04/18 02:27:09;;;;;;;;;8.67;7.67;20.80;41.40;;;;;;111463;1241;54132;-59
2023/04/18 02:29:36;;;;;;;;;9.75;7.75;20.80;41.20;;;;;;111466;1239;48817;-61
2023/04/18 02:32:03;;;;;;;;;10.50;9.00;20.80;41.20;;;;;;111296;1243;48839;-61
2023/04/18 02:34:32;;;;;;;;;8.75;7.50;20.80;41.10;;;;;;111174;1243;45322;-61
2023/04/18 02:36:59;;;;;;;;;9.00;8.00;20.80;41.20;;;;;;111302;1244;55081;-60
2023/04/18 02:39:26;;;;;;;;;9.00;8.00;20.80;41.30;;;;;;111154;1241;53984;-61
2023/04/18 02:41:53;;;;;;;;;10.00;9.00;20.80;41.10;;;;;;111143;1240;49017;-61
2023/04/18 02:44:20;;;;;;;;;16.00;8.67;20.80;41.10;;;;;;111195;1241;50073;-59
2023/04/18 02:46:47;;;;;;;;;9.67;7.67;20.80;41.10;;;;;;111173;1240;45916;-60
2023/04/18 02:49:14;;;;;;;;;10.00;8.75;20.80;41.10;;;;;;111192;1241;56086;-59
2023/04/18 02:51:41;;;;;;;;;9.50;7.75;20.80;41.10;;;;;;111270;1240;54309;-60
2023/04/18 02:54:08;;;;;;;;;9.00;8.00;20.80;41.10;;;;;;111313;1244;49572;-60
2023/04/18 02:56:38;;;;;;;;;9.67;8.67;20.80;41.20;;;;;;111451;1241;49050;-61
2023/04/18 02:59:06;;;;;;;;;8.75;7.75;20.80;41.10;;;;;;111321;1240;46884;-61
2023/04/18 03:01:33;;;;;;;;;11.00;8.33;20.80;41.00;;;;;;111299;1244;55236;-62
2023/04/18 03:04:00;;;;;;;;;10.25;9.25;20.80;41.00;;;;;;111451;1243;54820;-61
2023/04/18 03:06:27;;;;;;;;;11.50;9.00;20.80;41.10;;;;;;111301;1244;49175;-61
2023/04/18 03:08:54;;;;;;;;;9.67;7.67;20.80;41.00;;;;;;111198;1240;49503;-62
2023/04/18 03:11:21;;;;;;;;;8.75;7.75;20.80;41.00;;;;;;111174;1239;45564;-62
2023/04/18 03:13:48;;;;;;;;;9.67;8.33;20.80;41.20;;;;;;110991;1241;55889;-60
2023/04/18 03:16:15;;;;;;;;;9.50;8.25;20.80;41.20;;;;;;111771;1243;54090;-60
2023/04/18 03:18:42;;;;;;;;;10.00;8.25;20.80;41.00;;;;;;111454;1240;49400;-62
2023/04/18 03:21:10;;;;;;;;;9.75;8.75;20.80;41.00;;;;;;111213;1243;49117;-62
2023/04/18 03:23:37;;;;;;;;;9.50;8.00;20.80;41.20;;;;;;111207;1241;45605;-61
2023/04/18 03:26:07;;;;;;;;;9.00;8.00;20.70;40.90;;;;;;111030;1243;55695;-61
2023/04/18 03:28:34;;;;;;;;;10.00;9.00;20.80;41.00;;;;;;111249;1244;54188;-62
2023/04/18 03:31:01;;;;;;;;;10.25;9.00;20.80;41.00;;;;;;111263;1239;50166;-61
2023/04/18 03:33:27;;;;;;;;;10.00;7.50;20.70;40.90;;;;;;111189;1238;49868;-62
2023/04/18 03:35:54;;;;;;;;;9.25;7.75;20.70;40.90;;;;;;111045;1241;45520;-61
2023/04/18 03:38:21;;;;;;;;;10.00;8.00;20.70;41.40;;;;;;111171;1240;55136;-61
2023/04/18 03:40:49;;;;;;;;;10.00;9.00;20.80;41.10;;;;;;111469;1241;53423;-63
2023/04/18 03:43:17;;;;;;;;;14.75;9.75;20.80;40.90;;;;;;111465;1244;49266;-63
2023/04/18 03:45:46;;;;;;;;;9.75;8.50;20.70;41.00;;;;;;111265;1241;50419;-61
2023/04/18 03:48:13;;;;;;;;;8.75;7.75;20.70;40.80;;;;;;110992;1241;45678;-62
2023/04/18 03:50:40;;;;;;;;;10.00;8.00;20.70;40.80;;;;;;111197;1244;55482;-61
2023/04/18 03:53:07;;;;;;;;;10.00;9.00;20.70;40.90;;;;;;111181;1242;53707;-62
2023/04/18 03:55:34;;;;;;;;;9.00;7.75;20.70;40.90;;;;;;111239;1239;49740;-61
2023/04/18 03:58:02;;;;;;;;;8.33;7.33;20.70;40.90;;;;;;111203;1239;49845;-61
2023/04/18 04:00:29;;;;;;;;;9.00;7.67;20.70;40.90;;;;;;111211;1242;45729;-60
2023/04/18 04:02:56;;;;;;;;;11.00;10.00;20.70;40.90;;;;;;111178;1242;56203;-60
2023/04/18 04:05:23;;;;;;;;;9.00;8.00;20.70;40.90;;;;;;111173;1241;53471;-60
2023/04/18 04:07:50;;;;;;;;;9.00;7.75;20.60;41.10;;;;;;111347;1240;50337;-61
2023/04/18 04:10:17;;;;;;;;;11.50;8.00;20.60;40.80;;;;;;111361;1241;48594;-61
2023/04/18 04:12:45;;;;;;;;;10.75;7.75;20.60;40.90;;;;;;111187;1241;46538;-61
2023/04/18 04:15:12;;;;;;;;;10.00;9.00;20.60;40.90;;;;;;111392;1241;55541;-64
2023/04/18 04:17:39;;;;;;;;;9.00;8.00;20.60;40.90;;;;;;111179;1244;54060;-61
2023/04/18 04:20:07;;;;;;;;;10.00;8.00;20.60;40.90;;;;;;111154;1244;49850;-62
2023/04/18 04:22:35;;;;;;;;;10.00;9.00;20.60;40.90;;;;;;111181;1242;50464;-61
2023/04/18 04:25:04;;;;;;;;;11.50;8.00;20.60;41.40;;;;;;111010;1240;46005;-61
2023/04/18 04:27:32;;;;;;;;;11.75;8.75;20.60;41.10;;;;;;111236;1244;56059;-61
2023/04/18 04:30:01;;;;;;;;;22.50;15.25;20.60;41.10;;;;;;111258;1240;53812;-66
2023/04/18 04:32:29;;;;;;;;;17.75;15.00;20.60;47.80;;;;;;111259;1244;49128;-69
2023/04/18 04:34:56;;;;;;;;;21.75;18.75;20.70;52.40;;;;;;111722;1241;50338;-74
2023/04/18 04:37:23;;;;;;;;;55.25;36.50;20.90;52.10;;;;;;111306;1244;45578;-69
2023/04/18 04:39:51;;;;;;;;;45.67;31.67;21.10;51.30;;;;;;111423;1240;55444;-74
2023/04/18 04:42:18;;;;;;;;;53.50;31.75;21.20;50.30;;;;;;111155;1243;53371;-67
2023/04/18 04:44:46;;;;;;;;;43.25;27.00;21.30;50.50;;;;;;111104;1240;49164;-67
2023/04/18 04:47:13;;;;;;;;;37.75;24.75;21.50;50.30;;;;;;111283;1244;49051;-68
2023/04/18 04:49:40;;;;;;;;;62.00;39.00;21.60;49.80;;;;;;110110;1241;1164187;-67
2023/04/18 04:52:06;;;;;;;;;47.75;34.50;21.70;49.90;;;;;;111259;1244;56250;-67
2023/04/18 04:54:34;;;;;;;;;57.00;39.00;21.80;49.80;;;;;;111367;1244;53725;-68
2023/04/18 04:57:03;;;;;;;;;44.00;31.25;21.90;49.30;;;;;;111248;1238;49231;-67
2023/04/18 04:59:30;;;;;;;;;49.00;32.67;22.00;49.20;;;;;;111196;1243;49373;-69
2023/04/18 05:01:57;;;;;;;;;43.75;31.50;22.10;49.70;;;;;;111273;1244;45838;-72
2023/04/18 05:04:24;;;;;;;;;46.75;28.75;22.10;49.20;;;;;;111325;1244;55476;-72
2023/04/18 05:06:51;;;;;;;;;47.25;29.00;22.20;49.30;;;;;;111230;1244;53387;-72
2023/04/18 05:09:19;;;;;;;;;42.67;28.67;22.30;49.20;;;;;;111379;1244;50509;-73
2023/04/18 05:11:48;;;;;;;;;49.50;32.00;22.30;48.90;;;;;;111282;1244;49775;-73
2023/04/18 05:14:16;;;;;;;;;37.00;27.33;22.40;48.90;;;;;;111253;1243;45437;-74
2023/04/18 05:16:43;;;;;;;;;35.25;24.00;22.50;48.60;;;;;;111268;1241;55838;-74
2023/04/18 05:19:10;;;;;;;;;38.00;28.33;22.60;48.80;;;;;;111311;1244;54824;-74
2023/04/18 05:21:37;;;;;;;;;32.33;26.00;22.70;49.20;;;;;;111226;1240;48973;-70
2023/04/18 05:24:04;;;;;;;;;42.67;28.67;22.70;48.10;;;;;;111056;1244;49046;-71
2023/04/18 05:26:31;;;;;;;;;40.50;28.50;22.80;47.80;;;;;;111056;1241;45681;-73
2023/04/18 05:28:58;;;;;;;;;37.00;27.67;22.80;47.60;;;;;;111246;1243;55900;-71
2023/04/18 05:31:25;;;;;;;;;31.00;25.75;22.90;46.50;;;;;;111188;1241;53467;-70
2023/04/18 05:33:52;;;;;;;;;41.00;29.50;22.90;46.40;;;;;;111278;1244;49841;-71
2023/04/18 05:36:19;;;;;;;;;31.67;28.00;22.90;46.20;;;;;;111287;1244;49180;-60
2023/04/18 05:38:46;;;;;;;;;27.25;19.25;23.00;46.50;;;;;;111289;1240;46244;-60
2023/04/18 05:41:13;;;;;;;;;29.25;22.00;23.00;46.10;;;;;;111174;1244;55014;-60
2023/04/18 05:43:40;;;;;;;;;26.25;17.25;22.90;45.90;;;;;;111175;1244;54987;-60
2023/04/18 05:46:07;;;;;;;;;23.75;19.50;22.90;45.90;;;;;;111014;1243;49977;-60
2023/04/18 05:48:34;;;;;;;;;36.50;24.75;22.90;45.90;;;;;;111285;1244;49831;-61
2023/04/18 05:51:02;;;;;;;;;20.25;17.75;22.90;45.70;;;;;;111239;1244;46978;-62
2023/04/18 05:53:29;;;;;;;;;31.00;21.50;22.90;46.10;;;;;;111230;1244;55439;-61
2023/04/18 05:55:57;;;;;;;;;31.50;21.00;23.00;46.10;;;;;;111221;1244;54003;-62
2023/04/18 05:58:24;;;;;;;;;24.67;15.67;23.10;46.00;;;;;;111160;1244;49555;-63
2023/04/18 06:00:52;;;;;;;;;21.25;19.00;23.10;45.70;;;;;;111233;1244;49623;-62
2023/04/18 06:03:19;;;;;;;;;25.50;19.25;23.20;45.40;;;;;;111339;1240;45653;-62
2023/04/18 06:05:46;;;;;;;;;20.00;17.33;23.30;45.30;;;;;;111228;1240;55455;-62
2023/04/18 06:08:13;;;;;;;;;24.50;16.00;23.30;45.40;;;;;;111177;1241;53876;-61
2023/04/18 06:10:40;;;;;;;;;24.25;16.75;23.40;45.10;;;;;;111240;1241;49939;-62
2023/04/18 06:13:07;;;;;;;;;26.67;18.67;23.40;44.90;;;;;;111194;1244;50027;-64
2023/04/18 06:15:34;;;;;;;;;20.50;15.00;23.50;44.90;;;;;;111715;1244;46040;-65
2023/04/18 06:18:01;;;;;;;;;19.75;14.00;23.60;45.10;;;;;;111351;1244;54909;-60
2023/04/18 06:20:28;;;;;;;;;22.00;16.33;23.60;44.30;;;;;;111301;1243;53693;-62
2023/04/18 06:22:55;;;;;;;;;17.75;14.00;23.70;44.70;;;;;;111233;1244;49096;-61
2023/04/18 06:25:23;;;;;;;;;23.33;15.00;23.70;44.50;;;;;;111198;1239;49122;-60
2023/04/18 06:27:50;;;;;;;;;19.00;18.00;23.80;44.60;;;;;;111239;1244;45700;-60
2023/04/18 06:30:20;;;;;;;;;22.75;16.50;23.90;44.50;;;;;;111259;1244;56513;-61
2023/04/18 06:32:47;;;;;;;;;20.00;14.00;23.90;44.30;;;;;;111295;1243;53639;-62
2023/04/18 06:35:15;;;;;;;;;16.75;13.75;24.00;44.40;;;;;;111475;1239;50075;-62
2023/04/18 06:37:43;;;;;;;;;16.75;13.75;24.00;44.20;;;;;;111557;1240;49299;-61
2023/04/18 06:40:11;;;;;;;;;20.50;14.50;24.10;44.30;;;;;;111550;1241;46798;-61
2023/04/18 06:42:38;;;;;;;;;20.50;18.00;24.20;44.00;;;;;;111438;1244;55364;-62
2023/04/18 06:45:06;;;;;;;;;15.00;13.00;24.30;43.90;;;;;;111626;1240;53840;-64
2023/04/18 06:47:33;;;;;;;;;15.00;11.50;24.40;43.80;;;;;;111493;1244;50091;-62
2023/04/18 06:50:00;;;;;;;;;19.75;13.50;24.40;43.50;;;;;;111565;1243;48945;-62
2023/04/18 06:52:27;;;;;;;;;15.50;14.25;24.50;43.50;;;;;;111556;1241;45817;-64
2023/04/18 06:54:54;;;;;;;;;14.00;12.75;24.60;43.40;;;;;;111609;1241;56768;-62
2023/04/18 06:57:21;;;;;;;;;13.75;11.75;24.60;43.30;;;;;;111540;1241;53814;-60
2023/04/18 06:59:48;;;;;;;;;17.50;13.25;24.70;43.90;;;;;;111502;1244;49163;-62
2023/04/18 07:02:15;;;;;;;;;17.50;13.25;24.80;43.60;;;;;;111509;1241;50269;-62
2023/04/18 07:04:42;;;;;;;;;14.67;12.00;24.90;43.60;;;;;;111605;1240;45348;-61
2023/04/18 07:07:09;;;;;;;;;11.50;10.25;24.90;43.40;;;;;;111459;1243;55161;-62
2023/04/18 07:09:36;;;;;;;;;17.25;12.75;25.00;42.90;;;;;;111614;1240;54052;-63
2023/04/18 07:12:04;;;;;;;;;12.00;11.00;25.00;40.20;;;;;;111671;1241;52086;-61
2023/04/18 07:14:31;;;;;;;;;13.00;12.00;25.00;39.40;;;;;;111618;1242;49225;-61
2023/04/18 07:16:59;;;;;;;;;12.33;11.00;25.10;39.90;;;;;;111416;1240;45649;-61
2023/04/18 07:19:26;;;;;;;;;13.00;10.00;25.20;40.50;;;;;;111504;1240;56027;-60
2023/04/18 07:21:54;;;;;;;;;12.25;11.00;25.20;41.30;;;;;;111535;1241;54268;-62
2023/04/18 07:24:25;;;;;;;;;15.00;12.75;25.20;41.10;;;;;;111659;1241;48882;-63
2023/04/18 07:26:52;;;;;;;;;12.00;11.00;25.20;40.90;;;;;;111330;1244;49829;-59
2023/04/18 07:29:19;;;;;;;;;12.75;11.50;25.20;40.30;;;;;;111295;1244;45353;-63
2023/04/18 07:31:46;;;;;;;;;12.25;11.00;25.30;41.00;;;;;;111429;1243;55829;-63
2023/04/18 07:34:13;;;;;;;;;12.00;10.00;25.30;41.20;;;;;;111852;1241;54002;-62
2023/04/18 07:36:40;;;;;;;;;14.50;13.50;25.30;41.40;;;;;;111569;1239;49550;-62
2023/04/18 07:39:08;;;;;;;;;12.00;9.75;25.40;41.70;;;;;;111506;1241;49870;-63
2023/04/18 07:41:35;;;;;;;;;12.25;11.00;25.50;41.80;;;;;;111496;1239;45675;-61
2023/04/18 07:44:02;;;;;;;;;15.33;12.33;25.50;41.50;;;;;;111589;1239;55132;-61
2023/04/18 07:46:31;;;;;;;;;15.25;11.00;25.60;41.20;;;;;;111582;1241;54451;-61
2023/04/18 07:48:58;;;;;;;;;17.33;12.00;25.60;41.10;;;;;;111388;1241;48987;-60
2023/04/18 07:51:30;;;;;;;;;13.00;12.00;25.70;41.30;;;;;;111528;1242;49413;-60
2023/04/18 07:53:58;;;;;;;;;10.75;9.75;25.80;41.40;;;;;;111297;1244;46064;-62
2023/04/18 07:56:26;;;;;;;;;15.25;11.00;25.80;41.50;;;;;;111212;1244;56172;-60
2023/04/18 07:58:53;;;;;;;;;11.75;10.75;25.80;41.70;;;;;;111206;1243;53516;-60
2023/04/18 08:01:23;;;;;;;;;11.75;10.75;25.90;40.90;;;;;;111255;1242;49719;-60
2023/04/18 08:03:51;;;;;;;;;15.00;12.67;25.90;39.40;;;;;;111224;1241;49264;-62
2023/04/18 08:06:19;;;;;;;;;12.50;11.25;25.90;41.00;;;;;;111187;1241;45423;-61
2023/04/18 08:08:46;;;;;;;;;11.67;10.00;25.90;40.40;;;;;;111218;1244;55348;-59
2023/04/18 08:11:13;;;;;;;;;13.25;11.00;25.90;39.40;;;;;;110991;1242;53543;-61
2023/04/18 08:13:40;;;;;;;;;12.75;10.75;25.90;37.90;;;;;;111180;1241;49620;-60
2023/04/18 08:16:07;;;;;;;;;14.25;13.00;25.90;37.20;;;;;;111294;1241;48950;-61
2023/04/18 08:18:35;;;;;;;;;12.00;11.00;25.90;36.90;;;;;;111221;1244;46099;-59
2023/04/18 08:21:02;;;;;;;;;13.67;10.67;25.90;37.20;;;;;;111421;1244;56910;-60
2023/04/18 08:23:29;;;;;;;;;12.75;10.50;25.90;37.20;;;;;;111207;1241;53263;-61
2023/04/18 08:25:56;;;;;;;;;12.25;10.75;25.80;37.10;;;;;;111197;1243;50828;-60
2023/04/18 08:28:23;;;;;;;;;10.25;9.00;25.90;37.90;;;;;;111216;1244;50302;-64
2023/04/18 08:30:50;;;;;;;;;12.00;11.00;25.90;38.00;;;;;;111263;1240;45366;-63
2023/04/18 08:33:18;;;;;;;;;14.50;13.50;25.90;37.70;;;;;;111377;1240;55824;-67
2023/04/18 08:35:44;;;;;;;;;11.67;10.00;26.00;38.00;;;;;;111650;1244;53639;-67
2023/04/18 08:38:12;;;;;;;;;14.00;11.00;26.00;37.80;;;;;;111053;1241;49376;-66
2023/04/18 08:40:39;;;;;;;;;12.25;11.00;26.10;37.90;;;;;;110995;1244;49665;-71
2023/04/18 08:43:11;;;;;;;;;10.75;9.50;26.10;37.80;;;;;;111244;1244;45863;-69
2023/04/18 08:45:39;;;;;;;;;11.75;9.00;26.20;38.10;;;;;;111296;1244;56069;-70
2023/04/18 08:48:06;;;;;;;;;13.50;11.25;26.20;38.40;;;;;;111281;1244;53832;-62
2023/04/18 08:50:56;;;;;;;;;14.00;10.75;26.30;38.50;;;;;;111219;1244;49710;-63
2023/04/18 08:53:25;;;;;;;;;10.75;9.75;26.30;38.10;;;;;;111303;1240;50564;-65
2023/04/18 08:55:55;;;;;;;;;14.75;10.75;26.40;39.00;;;;;;111274;1242;46657;-69
2023/04/18 08:58:40;;;;;;;;;16.67;10.00;26.40;38.80;;;;;;111169;1246;55636;-70
2023/04/18 09:01:07;;;;;;;;;10.50;9.50;26.50;38.90;;;;;;111158;1241;54137;-71
2023/04/18 09:03:52;;;;;;;;;13.25;10.00;26.60;38.90;;;;;;111317;1244;49240;-73
2023/04/18 09:06:19;;;;;;;;;10.00;9.00;26.70;39.00;;;;;;111201;1244;49536;-72
2023/04/18 09:08:57;;;;;;;;;12.00;11.00;26.80;39.00;;;;;;111213;1240;46653;-71
2023/04/18 09:11:30;;;;;;;;;11.00;10.00;26.90;39.00;;;;;;111234;1244;55581;-71
2023/04/18 09:14:01;;;;;;;;;11.67;10.67;26.90;39.20;;;;;;111319;1244;54010;-71
2023/04/18 09:16:43;;;;;;;;;11.00;9.00;27.00;39.30;;;;;;111188;1242;50211;-70
2023/04/18 09:19:13;;;;;;;;;11.25;10.25;27.00;39.30;;;;;;111332;1241;48908;-71
2023/04/18 09:21:43;;;;;;;;;12.00;11.00;27.10;39.30;;;;;;111220;1241;45692;-73
2023/04/18 09:24:25;;;;;;;;;14.00;9.75;27.20;39.50;;;;;;111408;1240;56253;-71
2023/04/18 09:26:54;;;;;;;;;11.00;10.00;27.30;39.40;;;;;;111110;1244;54066;-71
2023/04/18 09:29:51;;;;;;;;;9.75;8.75;27.30;39.40;;;;;;111351;1244;49916;-71
2023/04/18 09:32:22;;;;;;;;;13.00;10.67;27.50;39.50;;;;;;111075;1241;48626;-73
2023/04/18 09:35:00;;;;;;;;;16.00;15.00;27.50;38.20;;;;;;111653;1241;45969;-71
2023/04/18 09:37:28;;;;;;;;;17.25;13.75;27.50;35.50;;;;;;111092;1241;55743;-71
2023/04/18 09:39:55;;;;;;;;;17.00;14.00;27.50;36.10;;;;;;111437;1244;54169;-68
2023/04/18 09:42:22;;;;;;;;;13.75;12.50;27.50;37.10;;;;;;111299;1244;49539;-71
2023/04/18 09:45:00;;;;;;;;;13.00;12.00;27.40;36.90;;;;;;111667;1242;49098;-69
2023/04/18 09:47:27;;;;;;;;;19.75;16.75;27.40;36.80;;;;;;111389;1241;45963;-71
2023/04/18 09:49:54;;;;;;;;;30.00;21.00;27.40;37.20;;;;;;111427;1240;56229;-69
2023/04/18 09:52:24;;;;;;;;;31.00;21.67;27.40;37.10;;;;;;111310;1241;54945;-69
2023/04/18 09:54:58;;;;;;;;;28.33;24.67;27.40;36.50;;;;;;111690;1244;48969;-70
2023/04/18 09:57:27;;;;;;;;;18.25;16.75;27.40;37.10;;;;;;111093;1245;50413;-69
2023/04/18 10:00:12;;;;;;;;;20.50;16.25;27.40;36.80;;;;;;111330;1241;45458;-70
2023/04/18 10:02:48;;;;;;;;;25.50;19.75;27.50;36.60;;;;;;111322;1240;55811;-69
2023/04/18 10:05:15;;;;;;;;;18.67;15.00;27.50;36.10;;;;;;111472;1240;53291;-69
2023/04/18 10:07:48;;;;;;;;;21.25;16.50;27.50;35.70;;;;;;111094;1241;49218;-69
2023/04/18 10:10:16;;;;;;;;;20.25;17.50;27.50;35.40;;;;;;111345;1243;48995;-70
2023/04/18 10:12:43;;;;;;;;;16.50;15.25;27.50;35.40;;;;;;111304;1243;46560;-69
2023/04/18 10:15:10;;;;;;;;;18.00;14.50;27.50;35.50;;;;;;111666;1240;56463;-70
2023/04/18 10:17:43;;;;;;;;;17.75;16.75;27.50;35.30;;;;;;111102;1240;54645;-70
2023/04/18 10:20:16;;;;;;;;;18.50;16.00;27.40;34.80;;;;;;111348;1244;50834;-69
2023/04/18 10:22:43;;;;;;;;;15.67;14.33;27.40;34.70;;;;;;111321;1240;49836;-66
2023/04/18 10:25:10;;;;;;;;;19.50;17.00;27.40;34.60;;;;;;111641;1239;45951;-68
2023/04/18 10:27:59;;;;;;;;;17.50;15.25;27.30;34.40;;;;;;111306;1244;55208;-70
2023/04/18 10:30:41;;;;;;;;;20.50;16.50;27.30;34.40;;;;;;111317;1244;53633;-70
2023/04/18 10:33:32;;;;;;;;;18.67;14.00;27.30;34.70;;;;;;111330;1243;50836;-70
2023/04/18 10:36:08;;;;;;;;;15.50;14.25;27.20;34.30;;;;;;111623;1244;48689;-70
2023/04/18 10:38:43;;;;;;;;;16.00;15.25;27.20;34.60;;;;;;111336;1240;45990;-70
2023/04/18 10:41:18;;;;;;;;;16.50;14.00;27.30;34.10;;;;;;111303;1240;55529;-70
2023/04/18 10:44:07;;;;;;;;;19.00;18.00;27.30;34.60;;;;;;111398;1241;53747;-70
2023/04/18 10:46:36;;;;;;;;;14.00;13.00;27.20;34.40;;;;;;111272;1244;49678;-71
2023/04/18 10:49:15;;;;;;;;;16.75;15.75;27.30;34.30;;;;;;111381;1243;49662;-66
2023/04/18 10:51:46;;;;;;;;;15.00;13.75;27.30;34.10;;;;;;111454;1244;46042;-73
2023/04/18 10:54:19;;;;;;;;;17.50;13.50;27.40;34.00;;;;;;111552;1244;55114;-72
2023/04/18 10:56:58;;;;;;;;;16.75;15.25;27.40;34.20;;;;;;111331;1241;53632;-71
2023/04/18 10:59:25;;;;;;;;;16.33;15.33;27.40;34.80;;;;;;111310;1244;49393;-79
2023/04/18 11:01:55;;;;;;;;;17.50;15.00;27.40;34.80;;;;;;111122;1240;49267;-68
2023/04/18 11:04:24;;;;;;;;;15.25;13.00;27.50;35.30;;;;;;111655;1244;46759;-70
2023/04/18 11:06:55;;;;;;;;;16.00;13.75;27.60;34.70;;;;;;111327;1244;56085;-69
2023/04/18 11:09:23;;;;;;;;;18.25;13.00;27.70;35.00;;;;;;111399;1241;53559;-75
2023/04/18 11:12:07;;;;;;;;;15.00;14.00;27.70;34.50;;;;;;111268;1241;49253;-71
2023/04/18 11:14:46;;;;;;;;;17.00;14.67;27.70;34.10;;;;;;111712;1239;50426;-68
2023/04/18 11:17:17;;;;;;;;;16.50;15.25;27.70;33.70;;;;;;111483;1239;45823;-70
2023/04/18 11:19:44;;;;;;;;;17.75;15.00;27.70;34.10;;;;;;111339;1244;55278;-71
2023/04/18 11:22:12;;;;;;;;;18.00;13.25;27.70;33.60;;;;;;111319;1243;54715;-70
2023/04/18 11:24:39;;;;;;;;;16.75;14.75;27.70;33.30;;;;;;111576;1241;49193;-71
2023/04/18 11:27:11;;;;;;;;;13.75;12.75;27.70;33.50;;;;;;111385;1241;49906;-70
2023/04/18 11:29:38;;;;;;;;;16.00;14.00;27.60;35.10;;;;;;111269;1241;45167;-72
2023/04/18 11:32:06;;;;;;;;;14.00;13.00;27.70;34.60;;;;;;111104;1241;55492;-74
2023/04/18 11:34:34;;;;;;;;;21.00;20.00;27.60;34.40;;;;;;111459;1246;54723;-73
2023/04/18 11:37:06;;;;;;;;;15.50;14.00;27.60;33.80;;;;;;111347;1244;49401;-72
2023/04/18 11:39:35;;;;;;;;;17.50;16.50;27.60;33.10;;;;;;111315;1241;48892;-73
2023/04/18 11:42:02;;;;;;;;;22.00;17.00;27.60;32.80;;;;;;111128;1247;46204;-72
2023/04/18 11:44:29;;;;;;;;;17.25;16.00;27.50;33.10;;;;;;111596;1242;56682;-72
2023/04/18 11:46:56;;;;;;;;;17.75;16.75;27.40;33.50;;;;;;111293;1244;53969;-73
2023/04/18 11:49:28;;;;;;;;;22.50;17.75;27.30;34.10;;;;;;111086;1241;49152;-73
2023/04/18 11:51:55;;;;;;;;;20.67;18.00;27.30;33.70;;;;;;111320;1244;49729;-73
2023/04/18 11:54:37;;;;;;;;;20.75;18.25;27.20;33.30;;;;;;111690;1240;45559;-73
2023/04/18 11:57:06;;;;;;;;;17.67;16.33;27.10;33.60;;;;;;111174;1244;56116;-70
2023/04/18 11:59:33;;;;;;;;;16.00;15.00;27.10;35.10;;;;;;111188;1242;55121;-71
2023/04/18 12:02:01;;;;;;;;;17.75;16.75;27.20;36.50;;;;;;111300;1244;49014;-70
2023/04/18 12:04:28;;;;;;;;;20.50;16.00;27.10;37.30;;;;;;111594;1243;50254;-69
2023/04/18 12:06:55;;;;;;;;;17.00;16.00;27.10;37.50;;;;;;111372;1241;45647;-69
2023/04/18 12:09:23;;;;;;;;;15.67;14.67;27.10;36.60;;;;;;111288;1244;57226;-70
2023/04/18 12:11:58;;;;;;;;;20.00;17.67;27.10;36.30;;;;;;111307;1241;54396;-71
2023/04/18 12:14:26;;;;;;;;;17.50;14.75;27.00;36.30;;;;;;111588;1242;49646;-69
2023/04/18 12:16:53;;;;;;;;;16.75;15.75;27.00;36.00;;;;;;111332;1241;49433;-71
2023/04/18 12:19:26;;;;;;;;;14.00;13.00;27.00;36.00;;;;;;111353;1243;46116;-70
2023/04/18 12:22:01;;;;;;;;;16.75;14.50;26.90;36.10;;;;;;111326;1239;56545;-70
2023/04/18 12:24:29;;;;;;;;;23.25;17.50;26.90;36.10;;;;;;111593;1244;53851;-69
2023/04/18 12:26:56;;;;;;;;;16.00;15.00;26.90;36.40;;;;;;111319;1244;49141;-69
2023/04/18 12:29:24;;;;;;;;;15.25;14.00;27.00;36.60;;;;;;111367;1241;48895;-69
2023/04/18 12:31:51;;;;;;;;;18.75;16.00;26.90;36.20;;;;;;111287;1244;45617;-69